Time;durP1;ratioP1;P1;durP2;ratioP2;P2;SDS_P1;SDS_P2;PMS_P1;PMS_P2;Temp;Humidity;BMP_temperature;BMP_pressure;BME280_temperature;BME280_humidity;BME280_pressure;Samples;Min_cycle;Max_cycle;Signal;HPM_P1;HPM_P2
2022/07/21 00:01:51;;;;;;;0.20;0.10;;;;;;;;;;6235257;23;20820;-90
2022/07/21 00:04:27;;;;;;;0.20;0.10;;;;;;;;;;6211992;23;20012;-89
2022/07/21 00:07:04;;;;;;;0.20;0.10;;;;;;;;;;6205991;23;20016;-87
2022/07/21 00:09:35;;;;;;;0.20;0.10;;;;;;;;;;6208052;23;20462;-89
2022/07/21 00:12:21;;;;;;;0.20;0.10;;;;;;;;;;6209569;23;20393;-88
2022/07/21 00:14:50;;;;;;;0.20;0.10;;;;;;;;;;6235949;23;20020;-88
2022/07/21 00:17:44;;;;;;;0.30;0.20;;;;;;;;;;6187139;23;20022;-87
2022/07/21 00:20:12;;;;;;;0.65;0.55;;;;;;;;;;6185792;23;20027;-87
2022/07/21 00:22:41;;;;;;;0.20;0.10;;;;;;;;;;6203732;23;20028;-86
2022/07/21 00:25:20;;;;;;;;;;;;;;;;;;;;;
2022/07/21 00:28:05;;;;;;;0.20;0.10;;;;;;;;;;6239861;23;20016;-91
2022/07/21 00:38:47;;;;;;;0.20;0.20;;;;;;;;;;5945009;24;20105;-88
2022/07/21 00:41:14;;;;;;;0.20;0.15;;;;;;;;;;6075513;22;20014;-90
2022/07/21 00:43:46;;;;;;;0.25;0.20;;;;;;;;;;6208689;23;20491;-89
2022/07/21 00:46:14;;;;;;;0.20;0.10;;;;;;;;;;6185389;23;20023;-90
2022/07/21 00:48:46;;;;;;;0.20;0.10;;;;;;;;;;6212819;23;20023;-87
2022/07/21 00:51:12;;;;;;;0.30;0.30;;;;;;;;;;6211751;23;20602;-88
2022/07/21 00:53:41;;;;;;;0.20;0.10;;;;;;;;;;6210021;23;20074;-86
2022/07/21 00:56:08;;;;;;;0.40;0.38;;;;;;;;;;6185912;23;20016;-88
2022/07/21 01:01:52;;;;;;;0.20;0.10;;;;;;;;;;6181051;23;20020;-88
2022/07/21 01:04:18;;;;;;;0.52;0.30;;;;;;;;;;6207981;23;20460;-88
2022/07/21 01:19:29;;;;;;;0.20;0.10;;;;;;;;;;6212805;23;20032;-91
2022/07/21 01:22:06;;;;;;;0.20;0.10;;;;;;;;;;6163946;23;20348;-89
2022/07/21 01:24:43;;;;;;;0.20;0.10;;;;;;;;;;6163486;23;20091;-91
2022/07/21 01:27:24;;;;;;;0.20;0.10;;;;;;;;;;6132376;23;20020;-90
2022/07/21 01:30:02;;;;;;;0.73;0.45;;;;;;;;;;6131244;23;20016;-89
2022/07/21 01:32:43;;;;;;;0.20;0.10;;;;;;;;;;6129107;23;20076;-89
2022/07/21 01:35:16;;;;;;;0.20;0.10;;;;;;;;;;6130469;23;20068;-90
2022/07/21 01:37:55;;;;;;;0.20;0.10;;;;;;;;;;6130131;23;20385;-89
2022/07/21 01:43:11;;;;;;;0.20;0.10;;;;;;;;;;6152152;23;20025;-91
2022/07/21 01:45:37;;;;;;;0.20;0.10;;;;;;;;;;6128721;23;20013;-88
2022/07/21 01:48:05;;;;;;;0.20;0.10;;;;;;;;;;6123916;23;20396;-91
2022/07/21 01:50:31;;;;;;;0.20;0.10;;;;;;;;;;6124775;23;20073;-90
2022/07/21 01:52:58;;;;;;;0.30;0.30;;;;;;;;;;6129371;23;20009;-92
2022/07/21 02:06:29;;;;;;;0.20;0.10;;;;;;;;;;6168426;23;20084;-89
2022/07/21 02:08:57;;;;;;;0.20;0.10;;;;;;;;;;6151117;23;20353;-90
2022/07/21 02:11:29;;;;;;;0.20;0.10;;;;;;;;;;6152162;23;20080;-89
2022/07/21 02:13:57;;;;;;;0.20;0.10;;;;;;;;;;6149991;23;20128;-90
2022/07/21 02:16:24;;;;;;;0.20;0.17;;;;;;;;;;6126902;23;20017;-90
2022/07/21 02:18:52;;;;;;;0.20;0.10;;;;;;;;;;6126732;23;20072;-89
2022/07/21 02:21:37;;;;;;;0.20;0.17;;;;;;;;;;6151006;23;20454;-92
2022/07/21 02:24:12;;;;;;;0.43;0.20;;;;;;;;;;6147821;23;20017;-90
2022/07/21 02:26:38;;;;;;;0.20;0.10;;;;;;;;;;6149604;23;20457;-92
2022/07/21 02:29:04;;;;;;;0.30;0.20;;;;;;;;;;6153145;23;20024;-88
2022/07/21 02:31:31;;;;;;;0.20;0.10;;;;;;;;;;6123420;23;20017;-89
2022/07/21 02:33:57;;;;;;;0.60;0.20;;;;;;;;;;6149167;23;20020;-86
2022/07/21 02:36:30;;;;;;;0.30;0.30;;;;;;;;;;6150312;23;20712;-90
2022/07/21 02:39:05;;;;;;;0.20;0.10;;;;;;;;;;6129864;23;20562;-94
2022/07/21 02:41:34;;;;;;;0.20;0.10;;;;;;;;;;6152652;23;20042;-92
2022/07/21 02:44:14;;;;;;;0.20;0.10;;;;;;;;;;6148897;23;20021;-87
2022/07/21 02:47:44;;;;;;;;;;;;;;;;;;6077690;23;20021;-90
2022/07/21 02:49:56;;;;;;;0.20;0.10;;;;;;;;;;6167473;23;19916;-90
2022/07/21 02:52:30;;;;;;;0.20;0.10;;;;;;;;;;6092353;23;20025;-89
2022/07/21 02:55:35;;;;;;;0.20;0.10;;;;;;;;;;6150400;23;20024;-88
2022/07/21 03:14:43;;;;;;;0.20;0.10;;;;;;;;;;6043712;23;20022;-90
2022/07/21 03:17:30;;;;;;;0.20;0.20;;;;;;;;;;6070864;23;20147;-89
2022/07/21 03:19:56;;;;;;;0.20;0.10;;;;;;;;;;6110430;23;20021;-92
2022/07/21 03:22:38;;;;;;;0.20;0.10;;;;;;;;;;6156491;23;20386;-91
2022/07/21 03:25:11;;;;;;;0.20;0.10;;;;;;;;;;6159256;23;20024;-92
2022/07/21 03:27:48;;;;;;;0.20;0.20;;;;;;;;;;6131200;23;20021;-90
2022/07/21 03:30:17;;;;;;;0.20;0.10;;;;;;;;;;6152600;23;20078;-91
2022/07/21 03:32:49;;;;;;;0.20;0.10;;;;;;;;;;6132928;23;20020;-91
2022/07/21 03:35:15;;;;;;;0.55;0.55;;;;;;;;;;6156414;23;20357;-91
2022/07/21 03:38:08;;;;;;;0.20;0.10;;;;;;;;;;6156780;23;20488;-92
2022/07/21 03:40:40;;;;;;;0.20;0.10;;;;;;;;;;6101432;23;20044;-91
2022/07/21 03:43:14;;;;;;;0.20;0.10;;;;;;;;;;6135711;23;20442;-91
2022/07/21 03:45:58;;;;;;;0.20;0.10;;;;;;;;;;6157665;23;20017;-92
2022/07/21 03:48:39;;;;;;;0.20;0.10;;;;;;;;;;6157099;23;20280;-90
2022/07/21 03:51:09;;;;;;;0.20;0.10;;;;;;;;;;6156542;23;20013;-91
2022/07/21 03:53:38;;;;;;;0.20;0.10;;;;;;;;;;6157237;23;20025;-91
2022/07/21 03:56:04;;;;;;;0.20;0.10;;;;;;;;;;6154296;23;20016;-90
2022/07/21 03:58:31;;;;;;;0.20;0.13;;;;;;;;;;6155814;23;20040;-90
2022/07/21 04:01:08;;;;;;;0.20;0.10;;;;;;;;;;6156045;23;20020;-89
2022/07/21 04:03:35;;;;;;;0.20;0.10;;;;;;;;;;6134074;23;20064;-91
2022/07/21 04:06:04;;;;;;;0.20;0.10;;;;;;;;;;6156649;23;20017;-91
2022/07/21 04:08:36;;;;;;;0.20;0.10;;;;;;;;;;6157083;23;20017;-88
2022/07/21 04:11:06;;;;;;;0.20;0.10;;;;;;;;;;6155580;23;20020;-90
2022/07/21 04:13:35;;;;;;;0.20;0.10;;;;;;;;;;6156618;23;20017;-88
2022/07/21 04:16:09;;;;;;;0.20;0.20;;;;;;;;;;6132530;23;20028;-90
2022/07/21 04:18:37;;;;;;;0.20;0.10;;;;;;;;;;6181512;23;20160;-90
2022/07/21 04:21:13;;;;;;;0.20;0.10;;;;;;;;;;6132576;23;20013;-91
2022/07/21 04:23:42;;;;;;;0.20;0.10;;;;;;;;;;6156184;23;20041;-91
2022/07/21 04:26:11;;;;;;;0.20;0.10;;;;;;;;;;6156083;23;20013;-88
2022/07/21 04:28:40;;;;;;;0.20;0.10;;;;;;;;;;6156997;23;20013;-91
2022/07/21 04:31:09;;;;;;;0.40;0.40;;;;;;;;;;6156111;23;20066;-91
2022/07/21 04:33:48;;;;;;;0.20;0.10;;;;;;;;;;6181289;23;20029;-90
2022/07/21 04:36:25;;;;;;;0.20;0.10;;;;;;;;;;6155315;23;20017;-90
2022/07/21 04:39:03;;;;;;;0.20;0.13;;;;;;;;;;6155226;23;20072;-92
2022/07/21 04:41:43;;;;;;;0.20;0.10;;;;;;;;;;6156822;23;20013;-91
2022/07/21 04:44:12;;;;;;;0.20;0.13;;;;;;;;;;6134992;23;20784;-88
2022/07/21 04:46:38;;;;;;;1.30;0.40;;;;;;;;;;6130954;23;20048;-89
2022/07/21 04:49:09;;;;;;;0.20;0.20;;;;;;;;;;6156262;23;20092;-91
2022/07/21 04:51:41;;;;;;;0.33;0.33;;;;;;;;;;6151644;23;20013;-89
2022/07/21 04:54:13;;;;;;;0.20;0.20;;;;;;;;;;6128941;23;20245;-87
2022/07/21 04:56:46;;;;;;;0.22;0.15;;;;;;;;;;6157521;23;20013;-87
2022/07/21 04:59:18;;;;;;;0.20;0.10;;;;;;;;;;6134487;23;20024;-92
2022/07/21 05:01:56;;;;;;;0.30;0.30;;;;;;;;;;6134412;23;20013;-93
2022/07/21 05:04:47;;;;;;;0.20;0.10;;;;;;;;;;6157144;23;20032;-91
2022/07/21 05:07:13;;;;;;;0.20;0.10;;;;;;;;;;6156094;23;20017;-89
2022/07/21 05:09:46;;;;;;;0.30;0.30;;;;;;;;;;6152710;23;20028;-88
2022/07/21 05:12:15;;;;;;;0.22;0.22;;;;;;;;;;6157635;23;20020;-92
2022/07/21 05:14:50;;;;;;;0.20;0.10;;;;;;;;;;6154955;23;20533;-90
2022/07/21 05:17:31;;;;;;;0.20;0.10;;;;;;;;;;6131769;23;20083;-90
2022/07/21 05:20:00;;;;;;;0.20;0.10;;;;;;;;;;6152864;23;20060;-89
2022/07/21 05:22:57;;;;;;;0.20;0.10;;;;;;;;;;6155156;23;20019;-92
2022/07/21 05:28:00;;;;;;;0.20;0.10;;;;;;;;;;6209230;22;20809;-92
2022/07/21 05:30:37;;;;;;;0.30;0.30;;;;;;;;;;6158662;23;20025;-91
2022/07/21 05:33:04;;;;;;;0.20;0.10;;;;;;;;;;6160229;23;20027;-92
2022/07/21 05:35:39;;;;;;;0.30;0.20;;;;;;;;;;6137684;23;20389;-91
2022/07/21 05:38:11;;;;;;;0.25;0.22;;;;;;;;;;6129219;23;20028;-91
2022/07/21 05:40:37;;;;;;;0.20;0.10;;;;;;;;;;6105365;23;20059;-91
2022/07/21 05:43:17;;;;;;;0.20;0.20;;;;;;;;;;6127532;23;20096;-92
2022/07/21 05:45:51;;;;;;;0.20;0.17;;;;;;;;;;6099391;23;20017;-89
2022/07/21 05:48:39;;;;;;;0.20;0.10;;;;;;;;;;6133334;23;20694;-91
2022/07/21 05:51:08;;;;;;;0.20;0.10;;;;;;;;;;6129732;23;20017;-88
2022/07/21 05:53:43;;;;;;;0.20;0.15;;;;;;;;;;6105304;23;20128;-89
2022/07/21 05:56:25;;;;;;;0.40;0.30;;;;;;;;;;6153593;23;20024;-91
2022/07/21 05:59:17;;;;;;;0.73;0.52;;;;;;;;;;6156773;23;20475;-93
2022/07/21 06:08:34;;;;;;;0.20;0.10;;;;;;;;;;6180970;23;20015;-91
2022/07/21 06:11:09;;;;;;;0.20;0.10;;;;;;;;;;6125025;23;20021;-91
2022/07/21 06:17:01;;;;;;;0.20;0.10;;;;;;;;;;6176831;23;20547;-90
2022/07/21 06:19:33;;;;;;;0.32;0.20;;;;;;;;;;6099529;23;20013;-91
2022/07/21 06:22:08;;;;;;;0.20;0.10;;;;;;;;;;6128508;23;20024;-88
2022/07/21 06:24:40;;;;;;;0.20;0.10;;;;;;;;;;6131229;23;20017;-87
2022/07/21 06:27:09;;;;;;;0.60;0.60;;;;;;;;;;6153343;23;20533;-87
2022/07/21 06:29:47;;;;;;;0.20;0.10;;;;;;;;;;6153185;23;20589;-88
2022/07/21 06:32:21;;;;;;;0.20;0.15;;;;;;;;;;6151344;23;20547;-93
2022/07/21 06:35:08;;;;;;;0.20;0.13;;;;;;;;;;6127938;23;20093;-89
2022/07/21 06:40:57;;;;;;;;;;;;;;;;;;;;;
2022/07/21 06:43:50;;;;;;;;;;;;;;;;;;;;;
2022/07/21 06:46:21;;;;;;;;;;;;;;;;;;6143356;23;20017;-88
2022/07/21 06:49:12;;;;;;;0.20;0.10;;;;;;;;;;6153299;23;19913;-88
2022/07/21 06:52:08;;;;;;;0.20;0.10;;;;;;;;;;6150100;23;20017;-90
2022/07/21 06:58:22;;;;;;;;;;;;;;;;;;;;;
2022/07/21 07:01:16;;;;;;;0.20;0.10;;;;;;;;;;6154818;23;20075;-87
2022/07/21 07:04:12;;;;;;;0.20;0.10;;;;;;;;;;6152399;23;20021;-91
2022/07/21 07:06:43;;;;;;;0.20;0.10;;;;;;;;;;6131009;23;20013;-86
2022/07/21 07:09:09;;;;;;;0.20;0.10;;;;;;;;;;6131428;23;20116;-88
2022/07/21 07:12:08;;;;;;;0.22;0.22;;;;;;;;;;6155617;23;20241;-91
2022/07/21 07:18:50;;;;;;;0.20;0.20;;;;;;;;;;6093303;23;20057;-89
2022/07/21 07:21:59;;;;;;;0.20;0.10;;;;;;;;;;6070299;23;20382;-91
2022/07/21 07:24:48;;;;;;;0.20;0.10;;;;;;;;;;5955422;24;20076;-90
2022/07/21 07:31:26;;;;;;;0.20;0.10;;;;;;;;;;5928515;24;20912;-92
2022/07/21 07:34:03;;;;;;;;;;;;;;;;;;;;;
2022/07/21 07:43:30;;;;;;;0.20;0.17;;;;;;;;;;5924781;24;20048;-91
2022/07/21 07:45:54;;;;;;;0.20;0.10;;;;;;;;;;5896944;24;20027;-91
2022/07/21 07:48:55;;;;;;;;;;;;;;;;;;;;;
2022/07/21 07:51:21;;;;;;;0.20;0.10;;;;;;;;;;5901375;24;20020;-87
2022/07/21 07:57:22;;;;;;;0.20;0.10;;;;;;;;;;6121075;23;20436;-91
2022/07/21 08:00:16;;;;;;;0.20;0.10;;;;;;;;;;6136956;23;20020;-92
2022/07/21 08:03:18;;;;;;;0.20;0.10;;;;;;;;;;6162428;23;20024;-88
2022/07/21 08:06:15;;;;;;;0.38;0.32;;;;;;;;;;6093724;23;20056;-86
2022/07/21 08:11:58;;;;;;;0.20;0.20;;;;;;;;;;6087596;23;20130;-86
2022/07/21 08:14:38;;;;;;;0.20;0.10;;;;;;;;;;6041692;23;20049;-90
2022/07/21 08:17:07;;;;;;;0.20;0.10;;;;;;;;;;6042720;23;20355;-87
2022/07/21 08:19:42;;;;;;;0.20;0.20;;;;;;;;;;6042930;23;20082;-87
2022/07/21 08:22:21;;;;;;;0.20;0.15;;;;;;;;;;6068746;23;20162;-87
2022/07/21 08:24:47;;;;;;;0.20;0.10;;;;;;;;;;6131442;23;20345;-89
2022/07/21 08:27:32;;;;;;;0.20;0.20;;;;;;;;;;6106427;23;20013;-87
2022/07/21 08:30:36;;;;;;;0.30;0.30;;;;;;;;;;6130523;23;20353;-87
2022/07/21 08:33:03;;;;;;;0.25;0.25;;;;;;;;;;6154892;23;20020;-90
2022/07/21 08:35:35;;;;;;;0.68;0.60;;;;;;;;;;6106484;23;20016;-88
2022/07/21 08:38:08;;;;;;;0.65;0.65;;;;;;;;;;6130186;23;20017;-88
2022/07/21 08:41:03;;;;;;;0.20;0.10;;;;;;;;;;6129560;23;20017;-87
2022/07/21 08:47:04;;;;;;;0.20;0.10;;;;;;;;;;6134288;23;20067;-87
2022/07/21 08:49:31;;;;;;;0.20;0.15;;;;;;;;;;6127356;23;20052;-85
2022/07/21 08:52:00;;;;;;;0.32;0.25;;;;;;;;;;6153510;23;20028;-86
2022/07/21 08:57:57;;;;;;;0.20;0.20;;;;;;;;;;6152387;23;20025;-87
2022/07/21 09:10:41;;;;;;;0.20;0.13;;;;;;;;;;5894410;23;20029;-85
2022/07/21 09:17:06;;;;;;;0.20;0.10;;;;;;;;;;6014160;22;20024;-90
2022/07/21 09:19:55;;;;;;;0.32;0.32;;;;;;;;;;6184635;23;20087;-90
2022/07/21 09:22:59;;;;;;;0.35;0.35;;;;;;;;;;6184770;23;20021;-91
2022/07/21 09:28:48;;;;;;;0.20;0.10;;;;;;;;;;6136419;23;20041;-85
2022/07/21 09:31:46;;;;;;;0.20;0.10;;;;;;;;;;6126409;23;20021;-94
2022/07/21 09:34:21;;;;;;;0.20;0.20;;;;;;;;;;6065423;23;20018;-88
2022/07/21 09:37:08;;;;;;;0.20;0.10;;;;;;;;;;6035787;23;20073;-86
2022/07/21 09:39:59;;;;;;;0.20;0.20;;;;;;;;;;6040462;23;20103;-85
2022/07/21 09:42:31;;;;;;;0.20;0.10;;;;;;;;;;6041403;23;20112;-86
2022/07/21 09:45:11;;;;;;;0.20;0.10;;;;;;;;;;6043136;23;20077;-90
2022/07/21 09:48:09;;;;;;;0.20;0.20;;;;;;;;;;6044985;23;20062;-89
2022/07/21 09:50:43;;;;;;;0.20;0.10;;;;;;;;;;6001010;23;20029;-87
2022/07/21 09:57:04;;;;;;;0.20;0.10;;;;;;;;;;5972860;24;20076;-86
2022/07/21 10:00:03;;;;;;;0.20;0.10;;;;;;;;;;6033351;23;20277;-85
2022/07/21 10:02:51;;;;;;;0.30;0.28;;;;;;;;;;6056837;23;20014;-90
2022/07/21 10:05:18;;;;;;;0.20;0.10;;;;;;;;;;6108606;23;20059;-86
2022/07/21 10:07:55;;;;;;;0.22;0.15;;;;;;;;;;6127999;23;20045;-86
2022/07/21 10:10:22;;;;;;;0.20;0.10;;;;;;;;;;6132608;23;20016;-86
2022/07/21 10:12:49;;;;;;;0.20;0.10;;;;;;;;;;6131497;23;20017;-86
2022/07/21 10:15:24;;;;;;;0.45;0.45;;;;;;;;;;6129688;23;20358;-90
2022/07/21 10:18:01;;;;;;;0.20;0.10;;;;;;;;;;6102478;23;20446;-87
2022/07/21 10:20:33;;;;;;;0.20;0.10;;;;;;;;;;6097457;23;20092;-84
2022/07/21 10:23:02;;;;;;;0.40;0.20;;;;;;;;;;6145245;23;20619;-87
2022/07/21 10:32:13;;;;;;;;;;;;;;;;;;;;;
2022/07/21 10:35:15;;;;;;;0.30;0.30;;;;;;;;;;6208601;23;20021;-92
2022/07/21 10:37:47;;;;;;;;;;;;;;;;;;6204655;23;20563;-91
2022/07/21 10:40:35;;;;;;;0.20;0.10;;;;;;;;;;6214368;23;20689;-90
2022/07/21 10:43:19;;;;;;;0.20;0.10;;;;;;;;;;6212902;23;20127;-92
2022/07/21 10:45:46;;;;;;;0.40;0.40;;;;;;;;;;6211448;23;20658;-84
2022/07/21 10:48:30;;;;;;;0.20;0.10;;;;;;;;;;6234904;23;20087;-85
2022/07/21 10:51:05;;;;;;;0.20;0.10;;;;;;;;;;6208998;23;20012;-86
2022/07/21 10:53:32;;;;;;;0.30;0.30;;;;;;;;;;6236434;23;20015;-84
2022/07/21 10:56:37;;;;;;;;;;;;;;;;;;;;;
2022/07/21 11:02:43;;;;;;;0.20;0.10;;;;;;;;;;6030122;23;20400;-90
2022/07/21 11:05:09;;;;;;;0.30;0.30;;;;;;;;;;6050541;23;20064;-85
2022/07/21 11:10:52;;;;;;;0.20;0.10;;;;;;;;;;6195357;23;20024;-87
2022/07/21 11:13:19;;;;;;;0.20;0.15;;;;;;;;;;6239253;23;20043;-87
2022/07/21 11:15:47;;;;;;;0.20;0.10;;;;;;;;;;6213327;23;20016;-85
2022/07/21 11:18:20;;;;;;;0.20;0.10;;;;;;;;;;6215718;23;20019;-86
2022/07/21 11:21:03;;;;;;;0.20;0.20;;;;;;;;;;6213533;23;20027;-86
2022/07/21 11:23:36;;;;;;;0.20;0.10;;;;;;;;;;6213833;23;20012;-85
2022/07/21 11:26:02;;;;;;;0.20;0.10;;;;;;;;;;6215299;23;20012;-85
2022/07/21 11:32:13;;;;;;;0.20;0.10;;;;;;;;;;6179405;23;20565;-87
2022/07/21 11:34:59;;;;;;;0.20;0.20;;;;;;;;;;6155508;23;20060;-87
2022/07/21 11:38:19;;;;;;;0.20;0.10;;;;;;;;;;6152532;23;20350;-89
2022/07/21 11:40:46;;;;;;;0.28;0.25;;;;;;;;;;6014952;23;20014;-85
2022/07/21 11:43:19;;;;;;;0.20;0.20;;;;;;;;;;6162575;23;20017;-87
2022/07/21 11:46:20;;;;;;;0.25;0.20;;;;;;;;;;6154524;23;20451;-91
2022/07/21 11:49:24;;;;;;;0.20;0.10;;;;;;;;;;6123014;23;20028;-86
2022/07/21 11:51:57;;;;;;;0.35;0.35;;;;;;;;;;6124922;23;20056;-88
2022/07/21 11:58:02;;;;;;;0.20;0.10;;;;;;;;;;6150149;23;20029;-90
2022/07/21 12:01:00;;;;;;;0.25;0.22;;;;;;;;;;6178465;23;20017;-90
2022/07/21 12:03:48;;;;;;;0.20;0.20;;;;;;;;;;6155466;23;20032;-87
2022/07/21 12:06:29;;;;;;;0.20;0.10;;;;;;;;;;6154690;23;20028;-85
2022/07/21 12:12:50;;;;;;;0.20;0.15;;;;;;;;;;6179961;23;20033;-87
2022/07/21 12:16:03;;;;;;;;;;;;;;;;;;;;;
2022/07/21 12:18:25;;;;;;;0.20;0.20;;;;;;;;;;6146235;23;20018;-87
2022/07/21 12:24:58;;;;;;;0.20;0.10;;;;;;;;;;6153657;23;20013;-85
2022/07/21 12:34:51;;;;;;;0.20;0.10;;;;;;;;;;5994716;23;20023;-87
2022/07/21 12:37:52;;;;;;;0.20;0.10;;;;;;;;;;6149824;23;20024;-85
2022/07/21 12:40:46;;;;;;;0.30;0.22;;;;;;;;;;6100600;23;20014;-91
2022/07/21 12:43:19;;;;;;;0.38;0.38;;;;;;;;;;6124883;23;20072;-88
2022/07/21 12:45:45;;;;;;;0.30;0.30;;;;;;;;;;6150350;23;20021;-87
2022/07/21 12:48:32;;;;;;;0.65;0.40;;;;;;;;;;6149128;23;20022;-91
2022/07/21 12:51:03;;;;;;;0.20;0.10;;;;;;;;;;6121959;23;20017;-84
2022/07/21 12:53:33;;;;;;;0.20;0.10;;;;;;;;;;6123143;23;20031;-91
2022/07/21 12:56:05;;;;;;;0.20;0.10;;;;;;;;;;6122041;23;20013;-90
2022/07/21 12:58:34;;;;;;;0.20;0.10;;;;;;;;;;6123984;23;20017;-83
2022/07/21 13:01:00;;;;;;;0.20;0.10;;;;;;;;;;6124187;23;20041;-87
2022/07/21 13:03:36;;;;;;;0.20;0.17;;;;;;;;;;6123557;23;20020;-88
2022/07/21 13:06:06;;;;;;;0.20;0.10;;;;;;;;;;6126624;23;20028;-92
2022/07/21 13:08:35;;;;;;;0.20;0.20;;;;;;;;;;6125147;23;20092;-89
2022/07/21 13:11:04;;;;;;;0.20;0.10;;;;;;;;;;6126892;23;20014;-86
2022/07/21 13:13:44;;;;;;;0.20;0.10;;;;;;;;;;6125457;23;20144;-88
2022/07/21 13:19:14;;;;;;;0.20;0.10;;;;;;;;;;6148912;23;20048;-86
2022/07/21 13:33:22;;;;;;;0.30;0.13;;;;;;;;;;6182907;22;20051;-90
2022/07/21 13:42:46;;;;;;;0.20;0.10;;;;;;;;;;6197440;22;20036;-88
2022/07/21 13:45:23;;;;;;;0.20;0.10;;;;;;;;;;6133801;23;20105;-86
2022/07/21 13:48:15;;;;;;;0.20;0.10;;;;;;;;;;6158247;23;20095;-88
2022/07/21 13:50:53;;;;;;;0.20;0.20;;;;;;;;;;6113315;23;20012;-89
2022/07/21 13:53:56;;;;;;;0.20;0.10;;;;;;;;;;6171227;23;20739;-90
2022/07/21 13:56:26;;;;;;;0.20;0.10;;;;;;;;;;6170600;23;20040;-86
2022/07/21 13:58:52;;;;;;;0.20;0.10;;;;;;;;;;6147087;23;20311;-87
2022/07/21 14:01:25;;;;;;;0.20;0.10;;;;;;;;;;6150757;23;20069;-92
2022/07/21 14:03:57;;;;;;;0.20;0.10;;;;;;;;;;6172245;23;20017;-89
2022/07/21 14:06:31;;;;;;;;;;;;;;;;;;6133811;23;20017;-90
2022/07/21 14:09:12;;;;;;;0.20;0.10;;;;;;;;;;6118736;23;20408;-90
2022/07/21 14:11:44;;;;;;;0.20;0.15;;;;;;;;;;6120033;23;20049;-89
2022/07/21 14:14:21;;;;;;;0.20;0.10;;;;;;;;;;6120620;23;20017;-89
2022/07/21 14:16:47;;;;;;;0.20;0.10;;;;;;;;;;6117932;23;20077;-88
2022/07/21 14:19:29;;;;;;;0.20;0.10;;;;;;;;;;6089286;23;20025;-90
2022/07/21 14:22:00;;;;;;;0.20;0.10;;;;;;;;;;6118054;23;20068;-91
2022/07/21 14:28:12;;;;;;;0.20;0.20;;;;;;;;;;6110266;23;20025;-88
2022/07/21 14:30:50;;;;;;;0.20;0.10;;;;;;;;;;6124182;23;20117;-90
2022/07/21 14:54:43;;;;;;;0.20;0.10;;;;;;;;;;6216896;23;20025;-92
2022/07/21 14:57:16;;;;;;;0.20;0.10;;;;;;;;;;6144027;23;20181;-91
2022/07/21 14:59:57;;;;;;;0.20;0.10;;;;;;;;;;6136612;23;20053;-89
2022/07/21 15:02:35;;;;;;;0.20;0.10;;;;;;;;;;6112503;23;20017;-91
2022/07/21 15:05:35;;;;;;;0.20;0.10;;;;;;;;;;6160423;23;20009;-90
2022/07/21 15:08:11;;;;;;;0.20;0.10;;;;;;;;;;6136435;23;20441;-87
2022/07/21 15:10:48;;;;;;;0.20;0.10;;;;;;;;;;6131812;23;20024;-91
2022/07/21 15:13:15;;;;;;;0.20;0.10;;;;;;;;;;6103181;23;20021;-85
2022/07/21 15:15:41;;;;;;;0.20;0.10;;;;;;;;;;6125722;23;20028;-85
2022/07/21 15:18:08;;;;;;;0.20;0.10;;;;;;;;;;6123666;23;20026;-85
2022/07/21 15:20:37;;;;;;;0.20;0.10;;;;;;;;;;6123319;23;20603;-84
2022/07/21 15:23:21;;;;;;;1.33;0.80;;;;;;;;;;6130899;23;20047;-93
2022/07/21 15:25:47;;;;;;;0.20;0.10;;;;;;;;;;6130170;23;20024;-85
2022/07/21 15:28:13;;;;;;;0.20;0.10;;;;;;;;;;6130024;23;20351;-85
2022/07/21 15:30:49;;;;;;;0.20;0.10;;;;;;;;;;6102961;23;20100;-89
2022/07/21 15:33:26;;;;;;;0.20;0.10;;;;;;;;;;6128298;23;20025;-85
2022/07/21 15:35:57;;;;;;;0.20;0.20;;;;;;;;;;6126841;23;20028;-84
2022/07/21 15:38:28;;;;;;;0.20;0.10;;;;;;;;;;6129222;23;20017;-85
2022/07/21 15:41:21;;;;;;;0.20;0.10;;;;;;;;;;6155857;23;20394;-87
2022/07/21 15:43:47;;;;;;;;;;;;;;;;;;6127781;23;20091;-86
2022/07/21 15:46:13;;;;;;;0.20;0.10;;;;;;;;;;6128179;23;19912;-86
2022/07/21 15:49:05;;;;;;;0.20;0.10;;;;;;;;;;6106592;23;20221;-88
2022/07/21 15:54:51;;;;;;;0.20;0.10;;;;;;;;;;6063072;23;20639;-83
2022/07/21 16:00:12;;;;;;;0.30;0.30;;;;;;;;;;6065331;23;20034;-88
2022/07/21 16:02:40;;;;;;;0.20;0.10;;;;;;;;;;6042362;23;20015;-84
2022/07/21 16:05:10;;;;;;;0.20;0.10;;;;;;;;;;6063816;23;20030;-87
2022/07/21 16:08:15;;;;;;;0.20;0.10;;;;;;;;;;6207591;23;20016;-88
2022/07/21 16:13:57;;;;;;;0.20;0.10;;;;;;;;;;6008393;23;20462;-85
2022/07/21 16:19:36;;;;;;;0.20;0.10;;;;;;;;;;6177069;23;20028;-85
2022/07/21 16:22:20;;;;;;;0.20;0.10;;;;;;;;;;6153875;23;20060;-85
2022/07/21 16:24:47;;;;;;;0.20;0.10;;;;;;;;;;6177747;23;20017;-85
2022/07/21 16:27:44;;;;;;;0.20;0.10;;;;;;;;;;6127822;23;20382;-87
2022/07/21 18:22:33;;;;;;;0.40;0.40;;;;;;;;;;6156337;23;20021;-88
2022/07/21 18:35:07;;;;;;;0.20;0.10;;;;;;;;;;6070014;23;20370;-89
2022/07/21 18:41:21;;;;;;;0.20;0.10;;;;;;;;;;6089342;23;19960;-91
2022/07/21 18:50:20;;;;;;;0.20;0.10;;;;;;;;;;6112398;23;20044;-91
2022/07/21 18:53:29;;;;;;;0.20;0.10;;;;;;;;;;6194268;23;20016;-92
2022/07/21 18:55:58;;;;;;;0.20;0.10;;;;;;;;;;6166271;23;20048;-91
2022/07/21 18:58:44;;;;;;;0.20;0.10;;;;;;;;;;6214038;23;20035;-87
2022/07/21 19:07:10;;;;;;;0.20;0.10;;;;;;;;;;6235198;22;20095;-90
2022/07/21 19:10:06;;;;;;;0.20;0.10;;;;;;;;;;6158803;23;20012;-93
2022/07/21 19:15:24;;;;;;;0.20;0.10;;;;;;;;;;6148179;23;20021;-89
2022/07/21 19:18:09;;;;;;;0.20;0.10;;;;;;;;;;6133209;23;20349;-88
2022/07/21 19:20:41;;;;;;;0.20;0.10;;;;;;;;;;6157398;23;20023;-90
2022/07/21 19:23:16;;;;;;;0.20;0.10;;;;;;;;;;6132293;23;20027;-90
2022/07/21 19:25:46;;;;;;;0.20;0.10;;;;;;;;;;6106287;23;20016;-92
2022/07/21 19:28:14;;;;;;;0.20;0.10;;;;;;;;;;6131647;23;20017;-89
2022/07/21 19:33:47;;;;;;;0.20;0.10;;;;;;;;;;6157250;23;20029;-90
2022/07/21 19:36:37;;;;;;;0.20;0.10;;;;;;;;;;6108519;23;20134;-86
2022/07/21 19:39:25;;;;;;;0.20;0.10;;;;;;;;;;6158477;23;20024;-90
2022/07/21 19:44:48;;;;;;;0.20;0.10;;;;;;;;;;6136560;23;20092;-86
2022/07/21 19:47:23;;;;;;;0.20;0.05;;;;;;;;;;6111020;23;20040;-89
2022/07/21 19:49:51;;;;;;;0.20;0.10;;;;;;;;;;6132117;23;20461;-91
2022/07/21 19:52:30;;;;;;;0.20;0.10;;;;;;;;;;6131811;23;20071;-90
2022/07/21 19:57:54;;;;;;;0.20;0.10;;;;;;;;;;6156388;23;20063;-89
2022/07/21 20:00:32;;;;;;;0.20;0.10;;;;;;;;;;6131360;23;20024;-92
2022/07/21 20:03:15;;;;;;;0.20;0.10;;;;;;;;;;6129985;23;20013;-88
2022/07/21 20:05:56;;;;;;;0.20;0.10;;;;;;;;;;6132176;23;20009;-93
2022/07/21 20:08:41;;;;;;;0.20;0.10;;;;;;;;;;6179428;23;20008;-89
2022/07/21 20:14:02;;;;;;;0.20;0.10;;;;;;;;;;6186709;23;20020;-92
2022/07/21 20:16:33;;;;;;;0.20;0.10;;;;;;;;;;6163590;23;20170;-87
2022/07/21 20:19:02;;;;;;;0.20;0.10;;;;;;;;;;6164135;23;20511;-90
2022/07/21 20:21:38;;;;;;;0.20;0.03;;;;;;;;;;6162513;23;20035;-90
2022/07/21 20:29:30;;;;;;;0.20;0.10;;;;;;;;;;6157556;23;20028;-89
2022/07/21 20:32:08;;;;;;;0.20;0.10;;;;;;;;;;6157257;23;20040;-91
2022/07/21 20:37:56;;;;;;;0.20;0.10;;;;;;;;;;6093025;23;20026;-92
2022/07/21 20:43:39;;;;;;;0.20;0.10;;;;;;;;;;6079348;23;20014;-91
2022/07/21 20:46:08;;;;;;;0.20;0.10;;;;;;;;;;6088278;23;20029;-93
2022/07/21 20:48:36;;;;;;;0.20;0.10;;;;;;;;;;6072504;23;20460;-92
2022/07/21 22:16:58;;;;;;;0.20;0.10;;;;;;;;;;6100599;23;20022;-90
2022/07/21 22:19:41;;;;;;;0.20;0.10;;;;;;;;;;4913173;22;4064821;-89
2022/07/21 22:22:07;;;;;;;0.20;0.10;;;;;;;;;;5019835;28;20068;-90
2022/07/21 22:24:37;;;;;;;0.20;0.10;;;;;;;;;;5014311;28;20534;-90
2022/07/21 22:27:03;;;;;;;0.20;0.10;;;;;;;;;;4990405;28;20033;-89
2022/07/21 22:29:31;;;;;;;0.20;0.10;;;;;;;;;;5012198;28;20041;-90
2022/07/21 22:32:00;;;;;;;0.20;0.10;;;;;;;;;;5018008;28;20040;-91
2022/07/21 22:34:28;;;;;;;0.20;0.10;;;;;;;;;;5020183;28;20038;-91
2022/07/21 22:36:54;;;;;;;0.20;0.10;;;;;;;;;;5007222;28;20038;-90
2022/07/21 22:39:21;;;;;;;0.20;0.10;;;;;;;;;;5020598;28;20046;-91
2022/07/21 22:41:47;;;;;;;0.20;0.10;;;;;;;;;;5020843;28;20038;-89
2022/07/21 22:44:16;;;;;;;0.20;0.10;;;;;;;;;;5021714;28;20033;-92
2022/07/21 22:46:42;;;;;;;0.20;0.10;;;;;;;;;;5008274;28;20087;-92
2022/07/21 22:49:11;;;;;;;0.20;0.10;;;;;;;;;;5020824;28;20068;-89
2022/07/21 22:51:43;;;;;;;0.20;0.10;;;;;;;;;;5020902;28;20037;-90
2022/07/21 22:54:17;;;;;;;0.20;0.10;;;;;;;;;;5021934;28;20491;-89
2022/07/21 22:56:43;;;;;;;0.20;0.10;;;;;;;;;;5025402;28;20103;-88
2022/07/21 22:59:09;;;;;;;0.20;0.10;;;;;;;;;;5022167;28;20049;-90
2022/07/21 23:01:36;;;;;;;0.20;0.10;;;;;;;;;;5025857;28;20553;-90
2022/07/21 23:04:02;;;;;;;0.20;0.10;;;;;;;;;;5019965;28;20091;-90
2022/07/21 23:06:28;;;;;;;0.20;0.10;;;;;;;;;;5008785;28;20049;-89
2022/07/21 23:08:54;;;;;;;0.20;0.10;;;;;;;;;;5024866;28;20037;-90
2022/07/21 23:11:20;;;;;;;0.20;0.10;;;;;;;;;;5019677;28;20164;-90
2022/07/21 23:13:46;;;;;;;0.20;0.10;;;;;;;;;;5002803;28;20038;-90
2022/07/21 23:16:13;;;;;;;0.20;0.10;;;;;;;;;;5010445;28;20051;-90
2022/07/21 23:18:39;;;;;;;0.20;0.10;;;;;;;;;;5022697;28;20052;-90
2022/07/21 23:21:05;;;;;;;0.20;0.10;;;;;;;;;;5013033;28;20040;-90
2022/07/21 23:23:32;;;;;;;0.20;0.10;;;;;;;;;;5025377;28;20037;-89
2022/07/21 23:25:59;;;;;;;0.20;0.10;;;;;;;;;;5023592;28;20102;-91
2022/07/21 23:28:25;;;;;;;0.20;0.10;;;;;;;;;;5022104;28;22161;-89
2022/07/21 23:30:51;;;;;;;0.20;0.10;;;;;;;;;;5007612;28;20033;-89
2022/07/21 23:33:17;;;;;;;0.20;0.10;;;;;;;;;;5005476;28;20042;-90